Αρχική σελίδα
METAR-TAF:

METAR-TAF

Αεροδρόμια :

Beaver Creek, Γιουκόν, Καναδάς

γεωγραφικό πλάτος: 62-25N, γεωγραφικό μήκος: 140-52W, υψόμετρο: 649 μ

Παρών καιρός

Η αναφορά έγινε 8 ώρες και 18 λεπτά πριν, στις 23:00 UTC
Ήπιος άνεμος
Θερμοκρασία -39°C
Υγρασία 65%
Πίεση 1011 hPa
Ορατότητα: 48.3 χλμ
Λίγα νέφη σε ύψος 10000 πόδια
Διάσπαρτα νέφη σε ύψος 25000 πόδια

METAR: CYXQ 182300Z 00000KT 30SM FEW100 SCT250 M39/M43 A2984 RMK AC1CI3 /LAST STFD OBS/NXT 191700Z SLP221

Χρόνος: 23:18 (07:18 UTC)


TAF: λείπει

Μετεωρολογικές αναφορές και προγνώσεις για περισσότερα από 4000 αεροδρόμια (δελτία METAR και TAF).

Οι διαθέσιμοι σταθμοί απεικονίζονται στο χάρτη με κίτρινες και κόκκινες κουκκίδες.

Μετακινήστε το ποντίκι πάνω από τις κουκκίδες για να δείτε το όνομα του σταθμού.

Στη συνέχεια, κάντε κλικ για να δείτε τις μετεωρολογικές αναφορές και τις προγνώσεις καιρού.

Για να αλλάξετε το χάρτη: κάντε κλικ στα πράσινα κουμπιά με τον μαύρο σταυρό για να ζουμάρετε, στο πράσινο κουμπί με την παύλα για να αφαιρέσετε το ζουμ ή στα πράσινα βέλη για να αντιπαραβάλλετε χάρτες.


METAR-TAF: